sensor_id;sensor_type;location;lat;lon;timestamp;temperature;humidity
17341;DHT22;8788;49.930;8.660;2023-09-30T00:01:58;18.40;99.90
17341;DHT22;8788;49.930;8.660;2023-09-30T00:04:26;18.40;99.90
17341;DHT22;8788;49.930;8.660;2023-09-30T00:06:55;18.40;99.90
17341;DHT22;8788;49.930;8.660;2023-09-30T00:09:22;18.40;99.90
17341;DHT22;8788;49.930;8.660;2023-09-30T00:11:49;18.40;99.90
17341;DHT22;8788;49.930;8.660;2023-09-30T00:14:16;18.30;99.90
17341;DHT22;8788;49.930;8.660;2023-09-30T00:16:43;18.30;99.90
17341;DHT22;8788;49.930;8.660;2023-09-30T00:19:11;18.30;99.90
17341;DHT22;8788;49.930;8.660;2023-09-30T00:21:40;18.20;99.90
17341;DHT22;8788;49.930;8.660;2023-09-30T00:24:07;18.20;99.90
17341;DHT22;8788;49.930;8.660;2023-09-30T00:26:35;18.20;99.90
17341;DHT22;8788;49.930;8.660;2023-09-30T00:29:02;18.20;99.90
17341;DHT22;8788;49.930;8.660;2023-09-30T00:31:30;18.10;99.90
17341;DHT22;8788;49.930;8.660;2023-09-30T00:33:58;18.10;99.90
17341;DHT22;8788;49.930;8.660;2023-09-30T00:36:25;18.10;99.90
17341;DHT22;8788;49.930;8.660;2023-09-30T00:38:53;18.10;99.90
17341;DHT22;8788;49.930;8.660;2023-09-30T00:41:20;18.10;99.90
17341;DHT22;8788;49.930;8.660;2023-09-30T00:43:47;18.00;99.90
17341;DHT22;8788;49.930;8.660;2023-09-30T00:46:23;18.00;99.90
17341;DHT22;8788;49.930;8.660;2023-09-30T00:48:53;18.00;99.90
17341;DHT22;8788;49.930;8.660;2023-09-30T00:51:21;17.90;99.90
17341;DHT22;8788;49.930;8.660;2023-09-30T00:53:49;17.90;99.90
17341;DHT22;8788;49.930;8.660;2023-09-30T00:56:20;17.90;99.90
17341;DHT22;8788;49.930;8.660;2023-09-30T00:58:49;17.80;99.90
17341;DHT22;8788;49.930;8.660;2023-09-30T01:01:17;17.80;99.90
17341;DHT22;8788;49.930;8.660;2023-09-30T01:03:45;17.80;99.90
17341;DHT22;8788;49.930;8.660;2023-09-30T01:06:13;17.80;99.90
17341;DHT22;8788;49.930;8.660;2023-09-30T01:08:40;17.90;99.90
17341;DHT22;8788;49.930;8.660;2023-09-30T01:11:08;17.90;99.90
17341;DHT22;8788;49.930;8.660;2023-09-30T01:13:38;17.90;99.90
17341;DHT22;8788;49.930;8.660;2023-09-30T01:16:05;17.90;99.90
17341;DHT22;8788;49.930;8.660;2023-09-30T01:18:32;17.80;99.90
17341;DHT22;8788;49.930;8.660;2023-09-30T01:21:02;17.80;99.90
17341;DHT22;8788;49.930;8.660;2023-09-30T01:23:32;17.80;99.90
17341;DHT22;8788;49.930;8.660;2023-09-30T01:26:02;17.90;99.90
17341;DHT22;8788;49.930;8.660;2023-09-30T01:28:30;17.90;99.90
17341;DHT22;8788;49.930;8.660;2023-09-30T01:30:58;17.90;99.90
17341;DHT22;8788;49.930;8.660;2023-09-30T01:33:25;17.90;99.90
17341;DHT22;8788;49.930;8.660;2023-09-30T01:35:53;17.90;99.90
17341;DHT22;8788;49.930;8.660;2023-09-30T01:38:20;17.90;99.90
17341;DHT22;8788;49.930;8.660;2023-09-30T01:40:49;17.90;99.90
17341;DHT22;8788;49.930;8.660;2023-09-30T01:43:16;17.90;99.90
17341;DHT22;8788;49.930;8.660;2023-09-30T01:45:43;17.90;99.90
17341;DHT22;8788;49.930;8.660;2023-09-30T01:48:11;17.90;99.90
17341;DHT22;8788;49.930;8.660;2023-09-30T01:50:49;17.90;99.90
17341;DHT22;8788;49.930;8.660;2023-09-30T01:53:16;17.90;99.90
17341;DHT22;8788;49.930;8.660;2023-09-30T01:55:43;17.90;99.90
17341;DHT22;8788;49.930;8.660;2023-09-30T01:58:12;17.90;99.90
17341;DHT22;8788;49.930;8.660;2023-09-30T02:00:39;18.00;99.90
17341;DHT22;8788;49.930;8.660;2023-09-30T02:03:06;18.00;99.90
17341;DHT22;8788;49.930;8.660;2023-09-30T02:05:35;18.00;99.90
17341;DHT22;8788;49.930;8.660;2023-09-30T02:08:02;18.00;99.90
17341;DHT22;8788;49.930;8.660;2023-09-30T02:10:31;18.00;99.90
17341;DHT22;8788;49.930;8.660;2023-09-30T02:12:59;18.00;99.90
17341;DHT22;8788;49.930;8.660;2023-09-30T02:15:28;18.00;99.90
17341;DHT22;8788;49.930;8.660;2023-09-30T02:17:55;18.00;99.90
17341;DHT22;8788;49.930;8.660;2023-09-30T02:20:22;18.10;99.90
17341;DHT22;8788;49.930;8.660;2023-09-30T02:22:51;18.10;99.90
17341;DHT22;8788;49.930;8.660;2023-09-30T02:25:19;18.00;99.90
17341;DHT22;8788;49.930;8.660;2023-09-30T02:27:49;18.00;99.90
17341;DHT22;8788;49.930;8.660;2023-09-30T02:30:17;18.00;99.90
17341;DHT22;8788;49.930;8.660;2023-09-30T02:32:45;18.00;99.90
17341;DHT22;8788;49.930;8.660;2023-09-30T02:35:13;17.90;99.90
17341;DHT22;8788;49.930;8.660;2023-09-30T02:37:41;17.90;99.90
17341;DHT22;8788;49.930;8.660;2023-09-30T02:40:08;17.90;99.90
17341;DHT22;8788;49.930;8.660;2023-09-30T02:42:36;17.90;99.90
17341;DHT22;8788;49.930;8.660;2023-09-30T02:45:04;17.80;99.90
17341;DHT22;8788;49.930;8.660;2023-09-30T02:47:32;17.70;99.90
17341;DHT22;8788;49.930;8.660;2023-09-30T02:50:01;17.70;99.90
17341;DHT22;8788;49.930;8.660;2023-09-30T02:52:28;17.70;99.90
17341;DHT22;8788;49.930;8.660;2023-09-30T02:54:55;17.80;99.90
17341;DHT22;8788;49.930;8.660;2023-09-30T02:57:23;17.80;99.90
17341;DHT22;8788;49.930;8.660;2023-09-30T02:59:50;17.80;99.90
17341;DHT22;8788;49.930;8.660;2023-09-30T03:02:19;17.80;99.90
17341;DHT22;8788;49.930;8.660;2023-09-30T03:04:50;17.80;99.90
17341;DHT22;8788;49.930;8.660;2023-09-30T03:07:20;17.80;99.90
17341;DHT22;8788;49.930;8.660;2023-09-30T03:09:47;17.70;99.90
17341;DHT22;8788;49.930;8.660;2023-09-30T03:12:14;17.70;99.90
17341;DHT22;8788;49.930;8.660;2023-09-30T03:14:41;17.70;99.90
17341;DHT22;8788;49.930;8.660;2023-09-30T03:17:10;17.70;99.90
17341;DHT22;8788;49.930;8.660;2023-09-30T03:19:37;17.70;99.90
17341;DHT22;8788;49.930;8.660;2023-09-30T03:22:05;17.70;99.90
17341;DHT22;8788;49.930;8.660;2023-09-30T03:24:39;17.60;99.90
17341;DHT22;8788;49.930;8.660;2023-09-30T03:27:07;17.50;99.90
17341;DHT22;8788;49.930;8.660;2023-09-30T03:29:35;17.50;99.90
17341;DHT22;8788;49.930;8.660;2023-09-30T03:32:04;17.50;99.90
17341;DHT22;8788;49.930;8.660;2023-09-30T03:34:31;17.50;99.90
17341;DHT22;8788;49.930;8.660;2023-09-30T03:36:58;17.40;99.90
17341;DHT22;8788;49.930;8.660;2023-09-30T03:39:25;17.40;99.90
17341;DHT22;8788;49.930;8.660;2023-09-30T03:41:55;17.40;99.90
17341;DHT22;8788;49.930;8.660;2023-09-30T03:44:23;17.30;99.90
17341;DHT22;8788;49.930;8.660;2023-09-30T03:46:51;17.30;99.90
17341;DHT22;8788;49.930;8.660;2023-09-30T03:49:18;17.30;99.90
17341;DHT22;8788;49.930;8.660;2023-09-30T03:51:46;17.20;99.90
17341;DHT22;8788;49.930;8.660;2023-09-30T03:54:16;17.10;99.90
17341;DHT22;8788;49.930;8.660;2023-09-30T03:56:44;17.10;99.90
17341;DHT22;8788;49.930;8.660;2023-09-30T03:59:13;17.00;99.90
17341;DHT22;8788;49.930;8.660;2023-09-30T04:01:41;16.90;99.90
17341;DHT22;8788;49.930;8.660;2023-09-30T04:04:09;16.90;99.90
17341;DHT22;8788;49.930;8.660;2023-09-30T04:06:36;17.00;99.90
17341;DHT22;8788;49.930;8.660;2023-09-30T04:09:05;17.00;99.90
17341;DHT22;8788;49.930;8.660;2023-09-30T04:11:36;17.00;99.90
17341;DHT22;8788;49.930;8.660;2023-09-30T04:14:05;17.00;99.90
17341;DHT22;8788;49.930;8.660;2023-09-30T04:16:35;17.00;99.90
17341;DHT22;8788;49.930;8.660;2023-09-30T04:19:03;17.00;99.90
17341;DHT22;8788;49.930;8.660;2023-09-30T04:21:33;16.90;99.90
17341;DHT22;8788;49.930;8.660;2023-09-30T04:24:00;16.90;99.90
17341;DHT22;8788;49.930;8.660;2023-09-30T04:26:27;16.90;99.90
17341;DHT22;8788;49.930;8.660;2023-09-30T04:28:55;16.80;99.90
17341;DHT22;8788;49.930;8.660;2023-09-30T04:31:22;16.80;99.90
17341;DHT22;8788;49.930;8.660;2023-09-30T04:33:51;16.80;99.90
17341;DHT22;8788;49.930;8.660;2023-09-30T04:36:19;16.80;99.90
17341;DHT22;8788;49.930;8.660;2023-09-30T04:38:46;16.70;99.90
17341;DHT22;8788;49.930;8.660;2023-09-30T04:41:14;16.70;99.90
17341;DHT22;8788;49.930;8.660;2023-09-30T04:43:41;16.60;99.90
17341;DHT22;8788;49.930;8.660;2023-09-30T04:46:09;16.60;99.90
17341;DHT22;8788;49.930;8.660;2023-09-30T04:48:38;16.60;99.90
17341;DHT22;8788;49.930;8.660;2023-09-30T04:51:08;16.60;99.90
17341;DHT22;8788;49.930;8.660;2023-09-30T04:53:37;16.50;99.90
17341;DHT22;8788;49.930;8.660;2023-09-30T04:56:05;16.50;99.90
17341;DHT22;8788;49.930;8.660;2023-09-30T04:58:32;16.50;99.90
17341;DHT22;8788;49.930;8.660;2023-09-30T05:00:59;16.40;99.90
17341;DHT22;8788;49.930;8.660;2023-09-30T05:03:26;16.40;99.90
17341;DHT22;8788;49.930;8.660;2023-09-30T05:05:53;16.40;99.90
17341;DHT22;8788;49.930;8.660;2023-09-30T05:08:23;16.30;99.90
17341;DHT22;8788;49.930;8.660;2023-09-30T05:10:50;16.30;99.90
17341;DHT22;8788;49.930;8.660;2023-09-30T05:13:20;16.20;99.90
17341;DHT22;8788;49.930;8.660;2023-09-30T05:15:49;16.20;99.90
17341;DHT22;8788;49.930;8.660;2023-09-30T05:18:17;16.20;99.90
17341;DHT22;8788;49.930;8.660;2023-09-30T05:20:44;16.20;99.90
17341;DHT22;8788;49.930;8.660;2023-09-30T05:23:11;16.10;99.90
17341;DHT22;8788;49.930;8.660;2023-09-30T05:25:41;16.00;99.90
17341;DHT22;8788;49.930;8.660;2023-09-30T05:28:09;16.00;99.90
17341;DHT22;8788;49.930;8.660;2023-09-30T05:30:37;16.00;99.90
17341;DHT22;8788;49.930;8.660;2023-09-30T05:33:04;16.00;99.90
17341;DHT22;8788;49.930;8.660;2023-09-30T05:35:31;15.90;99.90
17341;DHT22;8788;49.930;8.660;2023-09-30T05:37:59;15.80;99.90
17341;DHT22;8788;49.930;8.660;2023-09-30T05:40:26;15.80;99.90
17341;DHT22;8788;49.930;8.660;2023-09-30T05:42:57;15.80;99.90
17341;DHT22;8788;49.930;8.660;2023-09-30T05:45:25;15.70;99.90
17341;DHT22;8788;49.930;8.660;2023-09-30T05:47:53;15.70;99.90
17341;DHT22;8788;49.930;8.660;2023-09-30T05:50:21;15.70;99.90
17341;DHT22;8788;49.930;8.660;2023-09-30T05:52:52;15.70;99.90
17341;DHT22;8788;49.930;8.660;2023-09-30T05:55:19;15.70;99.90
17341;DHT22;8788;49.930;8.660;2023-09-30T05:57:47;15.70;99.90
17341;DHT22;8788;49.930;8.660;2023-09-30T06:00:17;15.70;99.90
17341;DHT22;8788;49.930;8.660;2023-09-30T06:02:48;15.80;99.90
17341;DHT22;8788;49.930;8.660;2023-09-30T06:05:15;15.80;99.90
17341;DHT22;8788;49.930;8.660;2023-09-30T06:07:45;15.90;99.90
17341;DHT22;8788;49.930;8.660;2023-09-30T06:10:12;15.90;99.90
17341;DHT22;8788;49.930;8.660;2023-09-30T06:12:44;15.90;99.90
17341;DHT22;8788;49.930;8.660;2023-09-30T06:15:12;15.90;99.90
17341;DHT22;8788;49.930;8.660;2023-09-30T06:17:41;15.90;99.90
17341;DHT22;8788;49.930;8.660;2023-09-30T06:20:10;15.90;99.90
17341;DHT22;8788;49.930;8.660;2023-09-30T06:22:42;16.00;99.90
17341;DHT22;8788;49.930;8.660;2023-09-30T06:25:11;16.00;99.90
17341;DHT22;8788;49.930;8.660;2023-09-30T06:27:38;16.00;99.90
17341;DHT22;8788;49.930;8.660;2023-09-30T06:30:06;16.00;99.90
17341;DHT22;8788;49.930;8.660;2023-09-30T06:32:34;16.10;99.90
17341;DHT22;8788;49.930;8.660;2023-09-30T06:35:04;16.20;99.90
17341;DHT22;8788;49.930;8.660;2023-09-30T06:37:32;16.20;99.90
17341;DHT22;8788;49.930;8.660;2023-09-30T06:39:59;16.30;99.90
17341;DHT22;8788;49.930;8.660;2023-09-30T06:42:29;16.40;99.90
17341;DHT22;8788;49.930;8.660;2023-09-30T06:44:56;16.40;99.90
17341;DHT22;8788;49.930;8.660;2023-09-30T06:47:24;16.50;99.90
17341;DHT22;8788;49.930;8.660;2023-09-30T06:49:51;16.50;99.90
17341;DHT22;8788;49.930;8.660;2023-09-30T06:52:19;16.60;99.90
17341;DHT22;8788;49.930;8.660;2023-09-30T06:54:46;16.50;99.90
17341;DHT22;8788;49.930;8.660;2023-09-30T06:57:13;16.60;99.90
17341;DHT22;8788;49.930;8.660;2023-09-30T06:59:40;16.70;99.90
17341;DHT22;8788;49.930;8.660;2023-09-30T07:02:07;16.80;99.90
17341;DHT22;8788;49.930;8.660;2023-09-30T07:04:34;16.80;99.90
17341;DHT22;8788;49.930;8.660;2023-09-30T07:07:01;16.80;99.90
17341;DHT22;8788;49.930;8.660;2023-09-30T07:09:30;16.80;99.90
17341;DHT22;8788;49.930;8.660;2023-09-30T07:11:57;16.90;99.90
17341;DHT22;8788;49.930;8.660;2023-09-30T07:14:24;17.00;99.90
17341;DHT22;8788;49.930;8.660;2023-09-30T07:16:51;17.00;99.90
17341;DHT22;8788;49.930;8.660;2023-09-30T07:19:18;17.10;99.90
17341;DHT22;8788;49.930;8.660;2023-09-30T07:21:45;17.20;99.90
17341;DHT22;8788;49.930;8.660;2023-09-30T07:24:13;17.30;99.90
17341;DHT22;8788;49.930;8.660;2023-09-30T07:26:42;17.40;99.90
17341;DHT22;8788;49.930;8.660;2023-09-30T07:29:09;17.50;99.90
17341;DHT22;8788;49.930;8.660;2023-09-30T07:31:36;17.60;99.90
17341;DHT22;8788;49.930;8.660;2023-09-30T07:34:03;17.60;99.90
17341;DHT22;8788;49.930;8.660;2023-09-30T07:36:30;17.70;99.90
17341;DHT22;8788;49.930;8.660;2023-09-30T07:38:57;17.80;99.90
17341;DHT22;8788;49.930;8.660;2023-09-30T07:41:26;17.80;99.90
17341;DHT22;8788;49.930;8.660;2023-09-30T07:43:54;17.90;99.90
17341;DHT22;8788;49.930;8.660;2023-09-30T07:46:21;17.90;99.90
17341;DHT22;8788;49.930;8.660;2023-09-30T07:48:48;17.90;99.90
17341;DHT22;8788;49.930;8.660;2023-09-30T07:51:15;18.00;99.90
17341;DHT22;8788;49.930;8.660;2023-09-30T07:53:42;18.00;99.90
17341;DHT22;8788;49.930;8.660;2023-09-30T07:56:10;18.20;99.90
17341;DHT22;8788;49.930;8.660;2023-09-30T07:58:37;18.10;99.90
17341;DHT22;8788;49.930;8.660;2023-09-30T08:01:07;18.20;99.90
17341;DHT22;8788;49.930;8.660;2023-09-30T08:03:34;18.20;99.90
17341;DHT22;8788;49.930;8.660;2023-09-30T08:06:03;18.10;99.90
17341;DHT22;8788;49.930;8.660;2023-09-30T08:08:30;17.90;99.90
17341;DHT22;8788;49.930;8.660;2023-09-30T08:10:57;18.10;99.90
17341;DHT22;8788;49.930;8.660;2023-09-30T08:13:25;18.30;99.90
17341;DHT22;8788;49.930;8.660;2023-09-30T08:15:52;18.40;99.90
17341;DHT22;8788;49.930;8.660;2023-09-30T08:18:21;18.30;99.90
17341;DHT22;8788;49.930;8.660;2023-09-30T08:20:48;18.20;99.90
17341;DHT22;8788;49.930;8.660;2023-09-30T08:23:15;18.20;99.90
17341;DHT22;8788;49.930;8.660;2023-09-30T08:25:43;18.00;99.90
17341;DHT22;8788;49.930;8.660;2023-09-30T08:28:10;17.90;99.90
17341;DHT22;8788;49.930;8.660;2023-09-30T08:30:38;18.10;99.90
17341;DHT22;8788;49.930;8.660;2023-09-30T08:33:05;18.30;99.90
17341;DHT22;8788;49.930;8.660;2023-09-30T08:35:36;18.50;99.90
17341;DHT22;8788;49.930;8.660;2023-09-30T08:38:04;18.70;99.90
17341;DHT22;8788;49.930;8.660;2023-09-30T08:40:31;18.80;99.90
17341;DHT22;8788;49.930;8.660;2023-09-30T08:42:58;18.90;99.90
17341;DHT22;8788;49.930;8.660;2023-09-30T08:45:28;19.00;99.90
17341;DHT22;8788;49.930;8.660;2023-09-30T08:47:57;19.10;99.90
17341;DHT22;8788;49.930;8.660;2023-09-30T08:50:26;19.10;99.90
17341;DHT22;8788;49.930;8.660;2023-09-30T08:52:55;19.30;99.90
17341;DHT22;8788;49.930;8.660;2023-09-30T08:55:23;19.30;99.90
17341;DHT22;8788;49.930;8.660;2023-09-30T08:57:51;19.40;99.90
17341;DHT22;8788;49.930;8.660;2023-09-30T09:00:20;19.50;99.90
17341;DHT22;8788;49.930;8.660;2023-09-30T09:02:47;19.50;99.90
17341;DHT22;8788;49.930;8.660;2023-09-30T09:05:16;19.40;99.90
17341;DHT22;8788;49.930;8.660;2023-09-30T09:07:43;19.30;99.90
17341;DHT22;8788;49.930;8.660;2023-09-30T09:10:12;19.00;99.90
17341;DHT22;8788;49.930;8.660;2023-09-30T09:12:41;18.80;99.90
17341;DHT22;8788;49.930;8.660;2023-09-30T09:15:19;18.80;99.90
17341;DHT22;8788;49.930;8.660;2023-09-30T09:17:47;18.80;99.90
17341;DHT22;8788;49.930;8.660;2023-09-30T09:20:17;19.00;99.90
17341;DHT22;8788;49.930;8.660;2023-09-30T09:22:46;19.10;99.90
17341;DHT22;8788;49.930;8.660;2023-09-30T09:25:15;19.10;99.90
17341;DHT22;8788;49.930;8.660;2023-09-30T09:27:42;19.20;99.90
17341;DHT22;8788;49.930;8.660;2023-09-30T09:30:17;19.30;99.90
17341;DHT22;8788;49.930;8.660;2023-09-30T09:32:54;19.50;99.90
17341;DHT22;8788;49.930;8.660;2023-09-30T09:35:23;19.50;99.90
17341;DHT22;8788;49.930;8.660;2023-09-30T09:37:57;19.50;99.90
17341;DHT22;8788;49.930;8.660;2023-09-30T09:40:28;19.30;99.90
17341;DHT22;8788;49.930;8.660;2023-09-30T09:42:57;19.40;99.90
17341;DHT22;8788;49.930;8.660;2023-09-30T09:45:25;19.50;99.90
17341;DHT22;8788;49.930;8.660;2023-09-30T09:47:53;19.60;99.90
17341;DHT22;8788;49.930;8.660;2023-09-30T09:50:22;19.70;99.90
17341;DHT22;8788;49.930;8.660;2023-09-30T09:52:50;19.70;99.90
17341;DHT22;8788;49.930;8.660;2023-09-30T09:55:18;19.90;99.90
17341;DHT22;8788;49.930;8.660;2023-09-30T09:57:47;20.00;99.90
17341;DHT22;8788;49.930;8.660;2023-09-30T10:00:17;20.10;99.90
17341;DHT22;8788;49.930;8.660;2023-09-30T10:02:44;20.10;99.90
17341;DHT22;8788;49.930;8.660;2023-09-30T10:05:12;20.20;99.90
17341;DHT22;8788;49.930;8.660;2023-09-30T10:07:44;20.20;99.90
17341;DHT22;8788;49.930;8.660;2023-09-30T10:10:17;20.40;99.90
17341;DHT22;8788;49.930;8.660;2023-09-30T10:12:46;20.50;99.90
17341;DHT22;8788;49.930;8.660;2023-09-30T10:15:36;20.50;99.90
17341;DHT22;8788;49.930;8.660;2023-09-30T10:18:06;20.50;99.90
17341;DHT22;8788;49.930;8.660;2023-09-30T10:20:36;20.50;99.90
17341;DHT22;8788;49.930;8.660;2023-09-30T10:23:19;20.40;99.90
17341;DHT22;8788;49.930;8.660;2023-09-30T10:25:46;20.40;99.90
17341;DHT22;8788;49.930;8.660;2023-09-30T10:28:38;20.50;99.90
17341;DHT22;8788;49.930;8.660;2023-09-30T10:31:14;20.40;99.90
17341;DHT22;8788;49.930;8.660;2023-09-30T10:36:40;20.80;99.90
17341;DHT22;8788;49.930;8.660;2023-09-30T10:39:11;20.90;99.90
17341;DHT22;8788;49.930;8.660;2023-09-30T10:41:49;20.90;99.90
17341;DHT22;8788;49.930;8.660;2023-09-30T10:44:36;20.90;99.90
17341;DHT22;8788;49.930;8.660;2023-09-30T10:53:14;20.90;99.90
17341;DHT22;8788;49.930;8.660;2023-09-30T10:55:41;21.10;99.90
17341;DHT22;8788;49.930;8.660;2023-09-30T10:58:09;21.20;99.90
17341;DHT22;8788;49.930;8.660;2023-09-30T11:00:38;21.40;99.90
17341;DHT22;8788;49.930;8.660;2023-09-30T11:03:06;21.50;99.90
17341;DHT22;8788;49.930;8.660;2023-09-30T11:05:33;21.60;99.90
17341;DHT22;8788;49.930;8.660;2023-09-30T11:08:02;21.60;99.90
17341;DHT22;8788;49.930;8.660;2023-09-30T11:10:29;21.80;99.90
17341;DHT22;8788;49.930;8.660;2023-09-30T11:12:58;22.00;99.90
17341;DHT22;8788;49.930;8.660;2023-09-30T11:15:25;22.00;99.90
17341;DHT22;8788;49.930;8.660;2023-09-30T11:18:13;22.10;99.60
17341;DHT22;8788;49.930;8.660;2023-09-30T11:20:40;22.10;99.30
17341;DHT22;8788;49.930;8.660;2023-09-30T11:23:08;22.10;99.30
17341;DHT22;8788;49.930;8.660;2023-09-30T11:25:35;22.20;99.50
17341;DHT22;8788;49.930;8.660;2023-09-30T11:28:13;22.50;98.90
17341;DHT22;8788;49.930;8.660;2023-09-30T11:30:54;22.50;98.20
17341;DHT22;8788;49.930;8.660;2023-09-30T11:33:22;22.50;98.00
17341;DHT22;8788;49.930;8.660;2023-09-30T11:35:57;22.50;98.10
17341;DHT22;8788;49.930;8.660;2023-09-30T11:38:24;22.60;98.00
17341;DHT22;8788;49.930;8.660;2023-09-30T11:40:59;22.70;97.80
17341;DHT22;8788;49.930;8.660;2023-09-30T11:43:28;22.70;96.70
17341;DHT22;8788;49.930;8.660;2023-09-30T11:46:04;22.80;97.10
17341;DHT22;8788;49.930;8.660;2023-09-30T11:48:35;22.80;96.40
17341;DHT22;8788;49.930;8.660;2023-09-30T11:51:03;22.70;95.50
17341;DHT22;8788;49.930;8.660;2023-09-30T11:53:31;22.70;96.20
17341;DHT22;8788;49.930;8.660;2023-09-30T11:55:58;22.80;96.30
17341;DHT22;8788;49.930;8.660;2023-09-30T11:58:28;23.00;96.40
17341;DHT22;8788;49.930;8.660;2023-09-30T12:00:58;23.10;96.10
17341;DHT22;8788;49.930;8.660;2023-09-30T12:03:26;23.20;96.30
17341;DHT22;8788;49.930;8.660;2023-09-30T12:05:55;23.40;96.00
17341;DHT22;8788;49.930;8.660;2023-09-30T12:08:22;23.50;95.10
17341;DHT22;8788;49.930;8.660;2023-09-30T12:10:50;23.40;95.20
17341;DHT22;8788;49.930;8.660;2023-09-30T12:13:17;23.30;93.50
17341;DHT22;8788;49.930;8.660;2023-09-30T12:15:44;23.00;94.00
17341;DHT22;8788;49.930;8.660;2023-09-30T12:18:11;22.80;93.80
17341;DHT22;8788;49.930;8.660;2023-09-30T12:20:42;22.90;94.70
17341;DHT22;8788;49.930;8.660;2023-09-30T12:23:11;23.10;94.20
17341;DHT22;8788;49.930;8.660;2023-09-30T12:25:38;23.30;93.90
17341;DHT22;8788;49.930;8.660;2023-09-30T12:28:05;23.50;93.90
17341;DHT22;8788;49.930;8.660;2023-09-30T12:30:32;23.70;93.70
17341;DHT22;8788;49.930;8.660;2023-09-30T12:32:59;23.70;93.20
17341;DHT22;8788;49.930;8.660;2023-09-30T12:35:26;23.80;94.00
17341;DHT22;8788;49.930;8.660;2023-09-30T12:37:53;24.00;93.40
17341;DHT22;8788;49.930;8.660;2023-09-30T12:40:23;24.10;92.40
17341;DHT22;8788;49.930;8.660;2023-09-30T12:42:50;24.20;92.50
17341;DHT22;8788;49.930;8.660;2023-09-30T12:45:17;24.30;91.80
17341;DHT22;8788;49.930;8.660;2023-09-30T12:47:44;24.20;91.50
17341;DHT22;8788;49.930;8.660;2023-09-30T12:50:13;24.10;90.60
17341;DHT22;8788;49.930;8.660;2023-09-30T12:52:40;23.90;90.50
17341;DHT22;8788;49.930;8.660;2023-09-30T12:55:08;23.80;90.60
17341;DHT22;8788;49.930;8.660;2023-09-30T12:57:36;23.90;91.00
17341;DHT22;8788;49.930;8.660;2023-09-30T13:00:04;23.90;90.70
17341;DHT22;8788;49.930;8.660;2023-09-30T13:02:35;24.00;90.50
17341;DHT22;8788;49.930;8.660;2023-09-30T13:05:02;24.20;90.50
17341;DHT22;8788;49.930;8.660;2023-09-30T13:07:30;24.40;90.50
17341;DHT22;8788;49.930;8.660;2023-09-30T13:09:58;24.70;90.40
17341;DHT22;8788;49.930;8.660;2023-09-30T13:12:26;25.00;88.20
17341;DHT22;8788;49.930;8.660;2023-09-30T13:14:55;25.00;88.10
17341;DHT22;8788;49.930;8.660;2023-09-30T13:17:22;25.00;88.90
17341;DHT22;8788;49.930;8.660;2023-09-30T13:19:50;25.20;88.80
17341;DHT22;8788;49.930;8.660;2023-09-30T13:22:17;24.80;84.20
17341;DHT22;8788;49.930;8.660;2023-09-30T13:24:44;24.60;86.10
17341;DHT22;8788;49.930;8.660;2023-09-30T13:27:11;24.60;86.50
17341;DHT22;8788;49.930;8.660;2023-09-30T13:29:41;24.70;84.80
17341;DHT22;8788;49.930;8.660;2023-09-30T13:32:10;24.70;85.20
17341;DHT22;8788;49.930;8.660;2023-09-30T13:34:37;24.70;85.70
17341;DHT22;8788;49.930;8.660;2023-09-30T13:37:05;24.90;86.60
17341;DHT22;8788;49.930;8.660;2023-09-30T13:39:32;25.30;87.00
17341;DHT22;8788;49.930;8.660;2023-09-30T13:42:00;25.40;83.50
17341;DHT22;8788;49.930;8.660;2023-09-30T13:44:27;25.50;85.40
17341;DHT22;8788;49.930;8.660;2023-09-30T13:46:54;25.50;84.50
17341;DHT22;8788;49.930;8.660;2023-09-30T13:49:23;25.30;83.40
17341;DHT22;8788;49.930;8.660;2023-09-30T13:51:50;25.20;82.60
17341;DHT22;8788;49.930;8.660;2023-09-30T13:54:17;25.10;81.60
17341;DHT22;8788;49.930;8.660;2023-09-30T13:56:44;24.80;82.50
17341;DHT22;8788;49.930;8.660;2023-09-30T13:59:11;24.70;83.00
17341;DHT22;8788;49.930;8.660;2023-09-30T14:01:38;24.60;83.30
17341;DHT22;8788;49.930;8.660;2023-09-30T14:04:07;24.40;83.10
17341;DHT22;8788;49.930;8.660;2023-09-30T14:06:35;24.30;84.50
17341;DHT22;8788;49.930;8.660;2023-09-30T14:09:02;24.20;84.50
17341;DHT22;8788;49.930;8.660;2023-09-30T14:11:30;24.10;84.50
17341;DHT22;8788;49.930;8.660;2023-09-30T14:13:57;24.00;85.20
17341;DHT22;8788;49.930;8.660;2023-09-30T14:16:24;24.00;86.30
17341;DHT22;8788;49.930;8.660;2023-09-30T14:18:52;24.10;87.00
17341;DHT22;8788;49.930;8.660;2023-09-30T14:21:19;24.10;86.20
17341;DHT22;8788;49.930;8.660;2023-09-30T14:23:47;24.00;85.20
17341;DHT22;8788;49.930;8.660;2023-09-30T14:26:14;23.80;85.90
17341;DHT22;8788;49.930;8.660;2023-09-30T14:28:41;23.90;86.50
17341;DHT22;8788;49.930;8.660;2023-09-30T14:31:08;23.90;87.10
17341;DHT22;8788;49.930;8.660;2023-09-30T14:33:35;24.00;86.50
17341;DHT22;8788;49.930;8.660;2023-09-30T14:36:02;23.80;86.50
17341;DHT22;8788;49.930;8.660;2023-09-30T14:38:31;23.70;87.10
17341;DHT22;8788;49.930;8.660;2023-09-30T14:40:59;23.70;88.30
17341;DHT22;8788;49.930;8.660;2023-09-30T14:43:26;23.70;88.20
17341;DHT22;8788;49.930;8.660;2023-09-30T14:45:53;23.70;87.70
17341;DHT22;8788;49.930;8.660;2023-09-30T14:48:20;23.70;88.20
17341;DHT22;8788;49.930;8.660;2023-09-30T14:50:48;23.70;87.80
17341;DHT22;8788;49.930;8.660;2023-09-30T14:53:16;23.80;88.50
17341;DHT22;8788;49.930;8.660;2023-09-30T14:55:45;23.80;88.30
17341;DHT22;8788;49.930;8.660;2023-09-30T14:58:13;23.60;87.10
17341;DHT22;8788;49.930;8.660;2023-09-30T15:00:40;23.50;86.90
17341;DHT22;8788;49.930;8.660;2023-09-30T15:03:08;23.40;88.00
17341;DHT22;8788;49.930;8.660;2023-09-30T15:05:36;23.40;87.30
17341;DHT22;8788;49.930;8.660;2023-09-30T15:08:04;23.30;87.80
17341;DHT22;8788;49.930;8.660;2023-09-30T15:10:34;23.20;87.40
17341;DHT22;8788;49.930;8.660;2023-09-30T15:13:01;23.20;88.80
17341;DHT22;8788;49.930;8.660;2023-09-30T15:15:35;23.30;88.70
17341;DHT22;8788;49.930;8.660;2023-09-30T15:18:02;23.30;88.50
17341;DHT22;8788;49.930;8.660;2023-09-30T15:20:30;23.20;88.00
17341;DHT22;8788;49.930;8.660;2023-09-30T15:22:57;23.10;88.80
17341;DHT22;8788;49.930;8.660;2023-09-30T15:25:25;23.00;90.00
17341;DHT22;8788;49.930;8.660;2023-09-30T15:27:52;23.00;90.00
17341;DHT22;8788;49.930;8.660;2023-09-30T15:30:19;22.90;89.30
17341;DHT22;8788;49.930;8.660;2023-09-30T15:32:48;23.00;89.40
17341;DHT22;8788;49.930;8.660;2023-09-30T15:35:15;23.20;88.90
17341;DHT22;8788;49.930;8.660;2023-09-30T15:37:42;23.40;88.10
17341;DHT22;8788;49.930;8.660;2023-09-30T15:40:09;23.50;88.00
17341;DHT22;8788;49.930;8.660;2023-09-30T15:42:37;23.40;87.70
17341;DHT22;8788;49.930;8.660;2023-09-30T15:45:06;23.30;88.40
17341;DHT22;8788;49.930;8.660;2023-09-30T15:47:36;23.20;88.70
17341;DHT22;8788;49.930;8.660;2023-09-30T15:50:06;23.00;88.90
17341;DHT22;8788;49.930;8.660;2023-09-30T15:52:33;22.80;89.30
17341;DHT22;8788;49.930;8.660;2023-09-30T15:55:01;22.60;90.00
17341;DHT22;8788;49.930;8.660;2023-09-30T15:57:28;22.60;90.30
17341;DHT22;8788;49.930;8.660;2023-09-30T15:59:55;22.50;90.50
17341;DHT22;8788;49.930;8.660;2023-09-30T16:02:22;22.40;91.10